Time;durP1;ratioP1;P1;durP2;ratioP2;P2;SDS_P1;SDS_P2;PMS_P1;PMS_P2;Temp;Humidity;BMP_temperature;BMP_pressure;BME280_temperature;BME280_humidity;BME280_pressure;Samples;Min_cycle;Max_cycle;Signal;HPM_P1;HPM_P2
2022/11/28 00:00:28;;;;;;;;;9.33;8.67;;;;;10.55;77.50;100734.88;4997027;28;46107;-72
2022/11/28 00:02:54;;;;;;;;;9.33;9.33;;;;;10.56;77.56;100742.69;4997515;28;45183;-71
2022/11/28 00:05:19;;;;;;;;;10.67;10.67;;;;;10.58;77.71;100726.59;4979910;28;45318;-72
2022/11/28 00:07:44;;;;;;;;;10.33;10.00;;;;;10.60;76.59;100712.19;4984984;28;45524;-71
2022/11/28 00:10:10;;;;;;;;;7.33;7.33;;;;;10.54;76.98;100695.97;5007183;28;45838;-72
2022/11/28 00:12:36;;;;;;;;;8.00;8.00;;;;;10.47;76.82;100685.09;4997413;28;45328;-71
2022/11/28 00:15:03;;;;;;;;;7.00;7.00;;;;;9.83;76.87;100555.63;4996320;28;45499;-73
2022/11/28 00:17:29;;;;;;;;;8.00;8.00;;;;;10.30;76.41;100624.72;4997866;28;45327;-70
2022/11/28 00:19:54;;;;;;;;;6.00;5.00;;;;;10.75;77.08;100693.09;4998024;28;46819;-73
2022/11/28 00:22:19;;;;;;;;;9.33;7.33;;;;;10.77;77.00;100699.09;4998319;28;45254;-71
2022/11/28 00:24:45;;;;;;;;;7.33;7.33;;;;;9.83;76.56;100547.69;4979659;28;45369;-72
2022/11/28 00:27:10;;;;;;;;;6.00;6.00;;;;;10.57;76.49;100669.94;4980019;28;45294;-71
2022/11/28 00:29:37;;;;;;;;;7.00;7.00;;;;;10.75;76.81;100695.75;4979471;28;48179;-71
2022/11/28 00:32:03;;;;;;;;;12.33;8.33;;;;;9.74;76.60;100519.31;4997185;28;45315;-72
2022/11/28 00:34:28;;;;;;;;;10.00;9.00;;;;;10.62;76.90;100662.38;4997208;28;45594;-69
2022/11/28 00:36:54;;;;;;;;;9.33;8.67;;;;;10.83;76.66;100696.72;4997216;28;45520;-72
2022/11/28 00:39:19;;;;;;;;;7.33;7.00;;;;;10.84;77.06;100689.59;4996809;28;52243;-72
2022/11/28 00:41:44;;;;;;;;;7.00;7.00;;;;;10.40;76.82;100614.88;4996997;28;45335;-71
2022/11/28 00:44:10;;;;;;;;;9.33;8.00;;;;;10.83;76.91;100698.53;4979472;28;45595;-72
2022/11/28 00:46:36;;;;;;;;;6.00;6.00;;;;;10.01;76.41;100547.72;5012314;28;45349;-71
2022/11/28 00:49:01;;;;;;;;;6.00;5.00;;;;;10.79;77.08;100670.53;4995936;28;47492;-71
2022/11/28 00:51:30;;;;;;;;;10.33;8.33;;;;;10.09;76.94;100536.41;4996941;28;45382;-72
2022/11/28 00:53:58;;;;;;;;;12.00;7.67;;;;;9.69;76.89;100484.41;4997123;28;45348;-72
2022/11/28 00:56:30;;;;;;;;;9.33;9.00;;;;;10.83;76.96;100670.13;4996796;28;45350;-70
2022/11/28 00:58:56;;;;;;;;;9.00;8.00;;;;;10.10;76.95;100549.53;4978755;28;47534;-72
2022/11/28 01:01:30;;;;;;;;;7.33;6.33;;;;;10.76;77.03;100674.34;4996618;28;45441;-71
2022/11/28 01:03:58;;;;;;;;;9.67;8.00;;;;;10.87;77.04;100702.59;4982692;28;45499;-72
2022/11/28 01:06:28;;;;;;;;;7.33;7.00;;;;;10.84;77.01;100677.13;5016922;28;45511;-69
2022/11/28 01:08:54;;;;;;;;;7.00;7.00;;;;;9.83;76.57;100505.19;5018539;28;47489;-73
2022/11/28 01:11:20;;;;;;;;;9.67;8.00;;;;;10.86;76.96;100676.97;5018436;28;45491;-71
2022/11/28 01:13:45;;;;;;;;;8.00;6.00;;;;;10.71;76.91;100644.69;5001922;28;45645;-74
2022/11/28 01:16:11;;;;;;;;;6.67;6.67;;;;;10.78;76.70;100659.06;5020035;28;45392;-74
2022/11/28 01:18:37;;;;;;;;;7.33;7.33;;;;;10.80;77.14;100670.41;5020242;28;46638;-72
2022/11/28 01:21:03;;;;;;;;;8.00;8.00;;;;;10.86;76.68;100684.94;5018414;28;45502;-71
2022/11/28 01:23:29;;;;;;;;;11.67;8.33;;;;;10.75;77.14;100656.72;5019859;28;45325;-71
2022/11/28 01:25:54;;;;;;;;;8.33;8.33;;;;;10.58;76.77;100626.41;5006782;28;45250;-73
2022/11/28 01:28:21;;;;;;;;;9.67;9.00;;;;;10.85;77.03;100668.16;4999852;28;45324;-71
2022/11/28 01:30:46;;;;;;;;;8.33;8.33;;;;;10.81;76.87;100666.78;4999997;28;46257;-71
2022/11/28 01:33:11;;;;;;;;;7.67;6.33;;;;;9.89;76.63;100509.91;4999656;28;46593;-73
2022/11/28 01:35:37;;;;;;;;;8.00;7.33;;;;;10.90;77.22;100697.81;5000085;28;45326;-69
2022/11/28 01:38:02;;;;;;;;;10.00;10.00;;;;;10.90;77.18;100695.13;5000319;28;46441;-72
2022/11/28 01:40:27;;;;;;;;;9.67;9.33;;;;;10.51;77.11;100632.47;4999793;28;45385;-72
2022/11/28 01:42:52;;;;;;;;;15.33;12.00;;;;;10.87;77.32;100694.59;4999686;28;54869;-72
2022/11/28 01:45:30;;;;;;;;;11.00;11.00;;;;;10.79;77.01;100689.16;4999707;28;45230;-71
2022/11/28 01:48:01;;;;;;;;;10.33;9.33;;;;;10.73;77.06;100682.63;4999406;28;45843;-70
2022/11/28 01:50:30;;;;;;;;;10.67;9.67;;;;;10.76;77.63;100678.81;4999532;28;45532;-71
2022/11/28 01:53:00;;;;;;;;;9.33;9.33;;;;;10.17;77.68;100609.06;4981894;28;45430;-73
2022/11/28 01:55:30;;;;;;;;;11.00;9.67;;;;;9.98;77.54;100564.78;4981609;28;46815;-71
2022/11/28 01:57:56;;;;;;;;;10.67;8.00;;;;;10.34;77.63;100618.13;4999212;28;46335;-71
2022/11/28 02:00:22;;;;;;;;;12.67;12.00;;;;;10.83;77.90;100706.53;4997878;28;45512;-70
2022/11/28 02:02:55;;;;;;;;;10.67;10.33;;;;;10.03;77.74;100572.34;4999563;28;45522;-72
2022/11/28 02:05:21;;;;;;;;;11.67;9.00;;;;;10.84;77.53;100711.69;4981880;28;45371;-70
2022/11/28 02:07:49;;;;;;;;;10.00;9.00;;;;;10.83;77.99;100701.22;4999223;28;47113;-70
2022/11/28 02:10:20;;;;;;;;;9.33;9.33;;;;;10.77;77.65;100688.47;4998968;28;45464;-72
2022/11/28 02:13:24;;;;;;;;;12.67;12.00;;;;;10.91;77.83;100703.94;4981358;28;45441;-72
2022/11/28 02:16:07;;;;;;;;;12.67;8.33;;;;;10.91;77.54;100704.78;4999357;28;45383;-70
2022/11/28 02:18:52;;;;;;;;;11.33;11.33;;;;;10.93;77.92;100707.31;4998436;28;46346;-71
2022/11/28 02:21:41;;;;;;;;;10.00;10.00;;;;;10.91;77.77;100704.78;4997335;28;46229;-73
2022/11/28 02:24:27;;;;;;;;;9.33;8.33;;;;;10.79;77.74;100667.88;5014399;28;45351;-75
2022/11/28 02:26:58;;;;;;;;;9.33;9.00;;;;;10.97;77.98;100698.03;5000619;28;45506;-70
2022/11/28 02:29:32;;;;;;;;;11.50;11.00;;;;;10.98;77.51;100694.38;4981420;28;48380;-70
2022/11/28 02:32:28;;;;;;;;;9.00;9.00;;;;;11.02;77.37;100690.47;4981214;28;45299;-70
2022/11/28 02:35:10;;;;;;;;;11.67;10.00;;;;;11.00;78.04;100688.91;4998901;28;45248;-72
2022/11/28 02:37:49;;;;;;;;;12.00;11.00;;;;;11.01;77.90;100687.94;4998803;28;45544;-72
2022/11/28 02:40:35;;;;;;;;;11.33;10.00;;;;;10.99;78.16;100701.38;4998560;28;45663;-69
2022/11/28 02:43:13;;;;;;;;;11.67;10.00;;;;;10.62;77.62;100634.97;4999094;28;45614;-72
2022/11/28 02:46:15;;;;;;;;;10.67;10.00;;;;;10.98;77.80;100694.38;4998792;28;45432;-70
2022/11/28 02:48:51;;;;;;;;;12.00;10.00;;;;;11.02;77.92;100705.59;4998992;28;45622;-70
2022/11/28 02:51:38;;;;;;;;;12.00;11.00;;;;;10.97;78.19;100674.09;4998713;28;46531;-71
2022/11/28 02:54:08;;;;;;;;;11.00;11.00;;;;;10.88;78.10;100659.03;4998839;28;45279;-71
2022/11/28 02:56:33;;;;;;;;;10.00;10.00;;;;;10.96;78.08;100659.97;4998617;28;45395;-71
2022/11/28 02:58:58;;;;;;;;;11.00;11.00;;;;;10.99;78.22;100666.81;4998727;28;45290;-71
2022/11/28 03:01:35;;;;;;;;;10.33;9.67;;;;;10.48;78.32;100580.44;4998627;28;46615;-71
2022/11/28 03:04:16;;;;;;;;;9.00;9.00;;;;;10.96;78.16;100665.28;4999794;28;45373;-72
2022/11/28 03:07:18;;;;;;;;;8.67;8.67;;;;;10.95;78.13;100660.09;5013519;28;45294;-70
2022/11/28 03:10:02;;;;;;;;;13.67;11.00;;;;;10.94;78.43;100650.47;4998182;28;45561;-70
2022/11/28 03:12:46;;;;;;;;;13.00;13.00;;;;;10.77;78.48;100627.31;4997701;28;47053;-70
2022/11/28 03:15:16;;;;;;;;;11.67;11.67;;;;;10.23;78.73;100541.28;4998110;28;45748;-70
2022/11/28 03:18:04;;;;;;;;;17.33;13.33;;;;;10.82;79.03;100646.34;4999225;28;45472;-71
2022/11/28 03:20:45;;;;;;;;;12.00;10.33;;;;;9.85;78.48;100497.91;4998215;28;45377;-72
2022/11/28 03:23:18;;;;;;;;;13.00;11.33;;;;;10.76;78.96;100649.56;4997797;28;46427;-71
2022/11/28 03:25:54;;;;;;;;;15.33;13.00;;;;;10.82;78.88;100654.31;4997887;28;45562;-71
2022/11/28 03:28:41;;;;;;;;;12.00;10.33;;;;;10.83;78.50;100658.66;4997671;28;45291;-71
2022/11/28 03:31:12;;;;;;;;;9.00;9.00;;;;;9.68;78.61;100493.34;4998169;28;45497;-73
2022/11/28 03:33:43;;;;;;;;;8.00;6.33;;;;;10.59;78.67;100621.94;4997762;28;46625;-71
2022/11/28 03:36:17;;;;;;;;;13.00;12.00;;;;;10.57;79.05;100611.44;4997673;28;45383;-71
2022/11/28 03:38:53;;;;;;;;;12.00;12.00;;;;;10.91;78.46;100667.56;4997894;28;45300;-71
2022/11/28 03:41:29;;;;;;;;;13.00;12.67;;;;;10.94;78.82;100682.38;4997977;28;45315;-70
2022/11/28 03:43:57;;;;;;;;;14.33;13.33;;;;;10.89;78.99;100664.22;4997702;28;47010;-71
2022/11/28 03:46:30;;;;;;;;;9.33;9.33;;;;;9.93;78.81;100511.28;4997568;28;45468;-70
2022/11/28 03:48:59;;;;;;;;;10.00;10.00;;;;;10.97;78.65;100666.94;4992347;28;45890;-72
2022/11/28 03:51:31;;;;;;;;;12.00;12.00;;;;;10.81;78.61;100641.97;5017753;28;45420;-71
2022/11/28 03:54:07;;;;;;;;;14.00;13.00;;;;;10.94;78.78;100658.44;5017214;28;46548;-71
2022/11/28 03:57:43;;;;;;;;;11.00;10.00;;;;;10.98;78.98;100655.31;5015897;28;45491;-72
2022/11/28 04:00:11;;;;;;;;;15.67;12.67;;;;;10.57;78.70;100595.50;4879708;28;45564;-71
2022/11/28 04:03:01;;;;;;;;;11.00;11.00;;;;;11.03;78.56;100657.56;4961167;28;45381;-70
2022/11/28 04:05:39;;;;;;;;;14.67;13.67;;;;;10.95;78.71;100642.31;4997359;28;46658;-72
2022/11/28 04:08:14;;;;;;;;;16.00;10.67;;;;;11.04;78.39;100650.41;4997370;28;45318;-72
2022/11/28 04:10:39;;;;;;;;;14.67;12.67;;;;;11.02;78.26;100647.91;4997166;28;45384;-71
2022/11/28 04:13:28;;;;;;;;;13.00;13.00;;;;;10.98;78.44;100670.44;4997574;28;45482;-70
2022/11/28 04:16:01;;;;;;;;;17.00;14.67;;;;;11.01;78.60;100667.47;4997488;28;46565;-71
2022/11/28 04:19:02;;;;;;;;;13.33;12.00;;;;;10.99;78.94;100674.78;4997288;28;45239;-73
2022/11/28 04:21:53;;;;;;;;;12.67;12.00;;;;;11.03;78.93;100665.53;4997249;28;45477;-70
2022/11/28 04:24:24;;;;;;;;;14.67;12.33;;;;;11.06;78.84;100665.25;4998256;28;45438;-70
2022/11/28 04:27:01;;;;;;;;;15.67;14.33;;;;;11.08;78.59;100671.25;4997328;28;46654;-71
2022/11/28 04:29:32;;;;;;;;;17.00;15.00;;;;;11.07;78.62;100669.56;4997026;28;45254;-73
2022/11/28 04:31:59;;;;;;;;;14.67;12.00;;;;;10.98;78.50;100646.50;4997081;28;45419;-71
2022/11/28 04:34:27;;;;;;;;;12.00;12.00;;;;;10.92;78.31;100628.50;4997310;28;45286;-70
2022/11/28 04:36:56;;;;;;;;;16.00;15.00;;;;;11.11;78.87;100657.63;4996782;28;45816;-70
2022/11/28 04:39:24;;;;;;;;;11.33;11.33;;;;;11.04;78.40;100647.75;4996375;28;45483;-71
2022/11/28 04:41:54;;;;;;;;;15.33;13.33;;;;;11.05;78.20;100644.94;5000139;28;45340;-73
2022/11/28 04:44:55;;;;;;;;;19.00;15.33;;;;;11.14;78.60;100662.66;4999132;28;45248;-72
2022/11/28 04:47:21;;;;;;;;;13.00;12.00;;;;;11.14;78.11;100667.97;4992147;28;45978;-71
2022/11/28 04:49:47;;;;;;;;;19.00;18.00;;;;;11.14;78.23;100677.78;5000198;28;45476;-71
2022/11/28 04:52:28;;;;;;;;;12.67;11.00;;;;;10.95;78.27;100654.78;5000291;28;45170;-72
2022/11/28 04:55:02;;;;;;;;;14.00;12.00;;;;;11.02;79.12;100668.34;5000418;28;45421;-72
2022/11/28 04:57:33;;;;;;;;;11.33;11.33;;;;;10.87;78.89;100644.06;4999768;28;46221;-72
2022/11/28 05:00:03;;;;;;;;;14.00;12.33;;;;;11.03;78.30;100660.22;5000059;28;45468;-70
2022/11/28 05:02:29;;;;;;;;;21.33;16.33;;;;;10.79;78.70;100620.03;5000663;28;45430;-71
2022/11/28 05:04:55;;;;;;;;;15.67;13.33;;;;;10.41;78.82;100542.16;5000974;28;45527;-70
2022/11/28 05:07:22;;;;;;;;;15.67;11.33;;;;;11.16;77.72;100642.06;5000281;28;46379;-74
2022/11/28 05:09:48;;;;;;;;;14.67;13.33;;;;;10.60;78.11;100560.63;5012551;28;45273;-72
2022/11/28 05:12:13;;;;;;;;;12.33;12.00;;;;;11.16;78.57;100660.69;5019637;28;45384;-69
2022/11/28 05:14:39;;;;;;;;;18.33;15.33;;;;;11.07;78.07;100656.28;5020015;28;45550;-72
2022/11/28 05:17:05;;;;;;;;;19.33;12.67;;;;;10.78;78.47;100621.00;5013834;28;46272;-70
2022/11/28 05:19:31;;;;;;;;;14.33;13.00;;;;;11.17;78.58;100657.03;4999481;28;45759;-72
2022/11/28 05:21:56;;;;;;;;;13.67;11.00;;;;;11.19;78.33;100680.84;4999719;28;45661;-71
2022/11/28 05:24:21;;;;;;;;;11.67;11.67;;;;;11.19;78.19;100671.03;5000099;28;45436;-70
2022/11/28 05:26:47;;;;;;;;;15.33;14.33;;;;;11.15;78.65;100659.00;4999342;28;46465;-71
2022/11/28 05:29:12;;;;;;;;;12.00;11.00;;;;;11.21;78.22;100660.22;4982005;28;45456;-72
2022/11/28 05:31:37;;;;;;;;;16.00;13.67;;;;;11.17;78.56;100675.66;4999959;28;45896;-71
2022/11/28 05:34:03;;;;;;;;;14.00;13.00;;;;;11.10;78.04;100620.53;4999625;28;45459;-71
2022/11/28 05:36:28;;;;;;;;;18.33;14.33;;;;;11.26;78.10;100660.63;4999635;28;46602;-71
2022/11/28 05:38:54;;;;;;;;;13.33;12.00;;;;;11.26;78.06;100656.16;5003876;28;45451;-70
2022/11/28 05:41:22;;;;;;;;;15.00;12.33;;;;;10.34;78.32;100498.56;5019337;28;45396;-72
2022/11/28 05:43:48;;;;;;;;;17.33;17.00;;;;;11.25;78.42;100651.81;5019506;28;45489;-71
2022/11/28 05:46:14;;;;;;;;;18.00;16.00;;;;;11.14;78.14;100635.22;5017545;28;47624;-72
2022/11/28 05:48:39;;;;;;;;;11.33;11.33;;;;;10.06;78.14;100474.63;5019845;28;45475;-74
2022/11/28 05:51:05;;;;;;;;;14.00;13.33;;;;;11.21;77.98;100650.44;5019300;28;45416;-72
2022/11/28 05:53:31;;;;;;;;;13.00;10.00;;;;;11.25;78.00;100654.47;5018703;28;45211;-72
2022/11/28 05:55:57;;;;;;;;;19.00;13.67;;;;;11.33;78.34;100660.88;5018945;28;46379;-71
2022/11/28 05:58:22;;;;;;;;;15.67;12.67;;;;;10.82;78.32;100590.50;5019085;28;45395;-71
2022/11/28 06:00:47;;;;;;;;;16.00;13.00;;;;;11.34;77.85;100662.53;5000234;28;46574;-72
2022/11/28 06:03:13;;;;;;;;;14.33;13.00;;;;;9.70;78.05;100401.13;5019207;28;45498;-70
2022/11/28 06:05:41;;;;;;;;;14.67;12.00;;;;;11.21;78.00;100639.81;5018662;28;46672;-71
2022/11/28 06:08:07;;;;;;;;;13.33;13.33;;;;;11.08;77.70;100625.19;5018991;28;45406;-71
2022/11/28 06:10:33;;;;;;;;;16.67;14.00;;;;;10.91;77.63;100589.59;5018793;28;45442;-72
2022/11/28 06:12:58;;;;;;;;;17.67;14.67;;;;;10.97;77.57;100592.47;5013776;28;45425;-72
2022/11/28 06:15:24;;;;;;;;;16.00;15.33;;;;;11.00;77.71;100596.66;5005905;28;46679;-72
2022/11/28 06:17:49;;;;;;;;;13.33;13.33;;;;;10.60;77.48;100528.75;4981110;28;45465;-72
2022/11/28 06:20:14;;;;;;;;;15.67;14.00;;;;;11.03;77.27;100609.69;4998875;28;47980;-71
2022/11/28 06:22:40;;;;;;;;;15.67;11.33;;;;;11.46;77.39;100698.59;5001656;28;45448;-72
2022/11/28 06:25:05;;;;;;;;;12.00;12.00;;;;;11.30;77.42;100667.31;4998812;28;45697;-70
2022/11/28 06:27:30;;;;;;;;;12.67;11.00;;;;;11.32;77.62;100662.69;4998529;28;45531;-71
2022/11/28 06:29:56;;;;;;;;;18.33;15.00;;;;;10.60;77.18;100544.69;4998768;28;45448;-71
2022/11/28 06:32:21;;;;;;;;;14.00;13.00;;;;;11.39;77.02;100679.72;5001973;28;45494;-72
2022/11/28 06:34:46;;;;;;;;;16.67;14.00;;;;;11.51;77.23;100696.31;4999355;28;45439;-71
2022/11/28 06:37:12;;;;;;;;;12.33;10.00;;;;;11.41;77.40;100680.44;4998009;28;48595;-72
2022/11/28 06:39:37;;;;;;;;;14.00;13.00;;;;;11.32;77.35;100667.16;4998745;28;45505;-73
2022/11/28 06:42:02;;;;;;;;;16.33;10.00;;;;;11.46;77.23;100693.28;4999684;28;45527;-73
2022/11/28 06:44:28;;;;;;;;;13.33;12.00;;;;;11.27;77.45;100675.63;4999707;28;46101;-72
2022/11/28 06:46:54;;;;;;;;;14.00;11.00;;;;;10.94;77.30;100622.03;4999292;28;45779;-72
2022/11/28 06:49:19;;;;;;;;;13.33;12.00;;;;;11.31;76.83;100684.13;5003789;28;45491;-74
2022/11/28 06:51:44;;;;;;;;;12.67;10.33;;;;;10.83;77.38;100616.09;4999192;28;45859;-70
2022/11/28 06:54:10;;;;;;;;;13.00;11.33;;;;;11.01;77.36;100662.16;4997099;28;45445;-72
2022/11/28 06:56:38;;;;;;;;;15.67;12.00;;;;;10.77;77.46;100633.47;4999264;28;45374;-73
2022/11/28 06:59:03;;;;;;;;;11.00;10.67;;;;;10.49;77.63;100582.13;5006056;28;45342;-72
2022/11/28 07:01:30;;;;;;;;;13.67;10.67;;;;;11.25;77.20;100706.88;4998212;28;45492;-73
2022/11/28 07:03:55;;;;;;;;;11.00;10.33;;;;;10.43;77.20;100572.09;4997151;28;46576;-72
2022/11/28 07:06:23;;;;;;;;;15.33;11.67;;;;;10.94;77.47;100656.63;4990990;28;45587;-72
2022/11/28 07:08:49;;;;;;;;;13.67;11.00;;;;;10.72;77.43;100618.94;5000101;28;45412;-73
2022/11/28 07:11:16;;;;;;;;;15.67;14.67;;;;;11.30;77.32;100709.06;5013627;28;45548;-72
2022/11/28 07:13:44;;;;;;;;;12.33;11.67;;;;;11.17;77.40;100688.97;4997920;28;46463;-71
2022/11/28 07:16:15;;;;;;;;;12.00;12.00;;;;;10.92;76.88;100655.09;4997701;28;45342;-73
2022/11/28 07:18:41;;;;;;;;;9.33;9.33;;;;;10.28;76.87;100557.59;5002774;28;45551;-76
2022/11/28 07:21:07;;;;;;;;;16.33;14.00;;;;;11.33;76.78;100722.06;4999269;28;45247;-77
2022/11/28 07:23:33;;;;;;;;;13.00;10.00;;;;;11.33;76.81;100725.56;5014033;28;45944;-71
2022/11/28 07:26:00;;;;;;;;;8.00;7.67;;;;;11.05;76.57;100678.69;5016205;28;46596;-73
2022/11/28 07:28:27;;;;;;;;;16.00;13.67;;;;;11.10;77.13;100671.09;5017719;28;45175;-72
2022/11/28 07:31:04;;;;;;;;;18.33;14.67;;;;;11.36;76.98;100716.44;5017161;28;45390;-72
2022/11/28 07:33:30;;;;;;;;;15.00;13.33;;;;;11.38;77.01;100709.16;5017375;28;45946;-74
2022/11/28 07:36:10;;;;;;;;;10.33;10.33;;;;;11.25;76.55;100691.72;5017668;28;45314;-73
2022/11/28 07:38:36;;;;;;;;;12.67;10.67;;;;;11.33;76.57;100719.41;5018382;28;45543;-73
2022/11/28 07:41:12;;;;;;;;;10.67;10.67;;;;;11.40;76.84;100737.28;5000811;28;45551;-73
2022/11/28 07:43:39;;;;;;;;;11.33;10.00;;;;;11.40;76.42;100734.63;5017261;28;45634;-73
2022/11/28 07:46:07;;;;;;;;;9.00;8.67;;;;;11.27;76.44;100711.06;5017419;28;45332;-74
2022/11/28 07:48:33;;;;;;;;;12.33;9.67;;;;;10.86;76.11;100650.38;5017489;28;45265;-72
2022/11/28 07:50:58;;;;;;;;;14.00;11.67;;;;;11.26;75.97;100720.03;5012840;28;45633;-72
2022/11/28 07:53:24;;;;;;;;;8.67;8.67;;;;;11.16;76.16;100700.59;4980136;28;47614;-72
2022/11/28 07:55:49;;;;;;;;;11.00;10.00;;;;;11.22;75.84;100708.00;5005738;28;45428;-73
2022/11/28 07:58:14;;;;;;;;;11.00;9.00;;;;;10.83;76.17;100654.16;4997304;28;45417;-72
2022/11/28 08:00:40;;;;;;;;;10.33;7.67;;;;;9.86;75.44;100496.94;5005533;28;45471;-72
2022/11/28 08:03:05;;;;;;;;;7.33;6.00;;;;;11.23;75.71;100730.97;5016882;28;45519;-73
2022/11/28 08:05:31;;;;;;;;;8.67;8.67;;;;;11.17;75.21;100714.72;5016892;28;45304;-71
2022/11/28 08:07:56;;;;;;;;;10.00;8.00;;;;;11.07;75.46;100690.84;4999124;28;45741;-72
2022/11/28 08:10:22;;;;;;;;;11.00;7.67;;;;;11.37;75.44;100742.09;4999914;28;45519;-73
2022/11/28 08:12:47;;;;;;;;;16.00;12.00;;;;;11.41;75.99;100759.41;5014423;28;46602;-72
2022/11/28 08:15:13;;;;;;;;;9.00;7.33;;;;;10.27;75.55;100555.94;5009970;28;45586;-71
2022/11/28 08:17:39;;;;;;;;;8.67;7.67;;;;;11.16;75.87;100711.25;4987553;28;45993;-77
2022/11/28 08:20:05;;;;;;;;;17.67;16.67;;;;;11.22;75.62;100713.31;4987475;28;45597;-75
2022/11/28 08:22:30;;;;;;;;;8.00;7.00;;;;;11.44;75.74;100756.50;4994388;28;46756;-79
2022/11/28 08:24:55;;;;;;;;;9.67;8.33;;;;;10.70;75.02;100636.88;4993755;28;45498;-72
2022/11/28 08:27:21;;;;;;;;;6.67;6.67;;;;;11.36;75.30;100740.41;5018275;28;45852;-71
2022/11/28 08:29:46;;;;;;;;;10.00;8.00;;;;;10.86;75.09;100653.03;5026690;28;45716;-73
2022/11/28 08:32:11;;;;;;;;;12.67;11.00;;;;;11.52;75.03;100756.56;5013466;28;45451;-71
2022/11/28 08:34:37;;;;;;;;;9.33;7.33;;;;;11.63;75.28;100767.03;5016814;28;45495;-73
2022/11/28 08:37:02;;;;;;;;;14.67;14.67;;;;;11.71;74.80;100760.94;5032098;28;45392;-70
2022/11/28 08:39:28;;;;;;;;;16.33;12.00;;;;;11.74;74.72;100755.28;5017105;28;45463;-73
2022/11/28 08:41:56;;;;;;;;;10.00;9.00;;;;;11.76;74.77;100750.66;4997664;28;48664;-72
2022/11/28 08:44:22;;;;;;;;;16.00;16.00;;;;;11.56;73.76;100726.81;4994001;28;45964;-72
2022/11/28 08:46:47;;;;;;;;;7.67;7.67;;;;;11.77;74.00;100755.81;5000364;28;45427;-73
2022/11/28 08:49:13;;;;;;;;;9.33;8.00;;;;;11.37;74.02;100678.19;5016485;28;45408;-73
2022/11/28 08:51:38;;;;;;;;;12.00;10.00;;;;;11.62;73.73;100728.06;5016757;28;45357;-75
2022/11/28 08:54:04;;;;;;;;;9.67;9.33;;;;;11.77;74.08;100755.81;5014495;28;45401;-76
2022/11/28 08:56:30;;;;;;;;;10.33;9.67;;;;;11.62;74.30;100725.41;5018340;28;45308;-73
2022/11/28 08:58:55;;;;;;;;;11.00;9.67;;;;;11.77;73.59;100755.81;5016681;28;45349;-71
2022/11/28 09:01:25;;;;;;;;;10.67;10.67;;;;;10.95;73.97;100610.41;5015383;28;46135;-72
2022/11/28 09:03:51;;;;;;;;;10.33;9.00;;;;;11.25;73.24;100654.47;5000133;28;45588;-73
2022/11/28 09:06:18;;;;;;;;;11.33;9.00;;;;;11.84;73.76;100746.28;5004517;28;45455;-72
2022/11/28 09:08:44;;;;;;;;;13.00;10.00;;;;;11.25;73.03;100641.16;5012514;28;45465;-72
2022/11/28 09:11:12;;;;;;;;;17.67;15.33;;;;;11.84;73.91;100740.97;5002115;28;45539;-74
2022/11/28 09:13:38;;;;;;;;;10.33;9.67;;;;;11.74;73.36;100740.16;4997222;28;45456;-73
2022/11/28 09:16:04;;;;;;;;;12.00;9.67;;;;;11.53;73.73;100705.00;4998392;28;45257;-71
2022/11/28 09:18:30;;;;;;;;;10.00;8.67;;;;;11.69;73.63;100745.09;5003262;28;45390;-74
2022/11/28 09:20:57;;;;;;;;;10.67;10.00;;;;;11.66;73.49;100734.75;5013839;28;45726;-72
2022/11/28 09:23:23;;;;;;;;;11.33;11.00;;;;;11.07;73.54;100634.16;4995364;28;45271;-75
2022/11/28 09:25:48;;;;;;;;;12.33;9.00;;;;;11.69;74.07;100730.94;4986297;28;45511;-71
2022/11/28 09:28:13;;;;;;;;;15.00;14.00;;;;;11.82;73.86;100761.59;5019040;28;45476;-72
2022/11/28 09:30:39;;;;;;;;;12.67;10.67;;;;;11.88;74.69;100760.13;5021254;28;45508;-71
2022/11/28 09:33:05;;;;;;;;;14.00;10.33;;;;;11.57;73.99;100722.34;5019237;28;45499;-74
2022/11/28 09:35:31;;;;;;;;;12.33;11.00;;;;;11.92;73.69;100771.31;5018470;28;45523;-71
2022/11/28 09:37:57;;;;;;;;;11.67;11.00;;;;;11.88;73.88;100752.97;5014450;28;45491;-74
2022/11/28 09:40:26;;;;;;;;;13.67;10.33;;;;;11.21;73.29;100650.44;5003415;28;45985;-74
2022/11/28 09:42:51;;;;;;;;;13.00;12.00;;;;;11.86;73.12;100748.81;4998820;28;45548;-72
2022/11/28 09:45:20;;;;;;;;;12.00;11.00;;;;;11.90;73.40;100755.50;4981797;28;45512;-73
2022/11/28 09:47:53;;;;;;;;;10.33;9.33;;;;;11.70;72.97;100724.63;5012656;28;45413;-75
2022/11/28 09:50:22;;;;;;;;;8.00;6.67;;;;;11.97;72.36;100761.88;5019297;28;46662;-71
2022/11/28 09:52:52;;;;;;;;;14.00;9.00;;;;;11.75;72.14;100719.69;5017777;28;45361;-71
2022/11/28 09:55:55;;;;;;;;;10.33;7.33;;;;;12.15;71.87;100770.69;4999458;28;45567;-72
2022/11/28 09:58:40;;;;;;;;;10.67;8.67;;;;;12.21;71.87;100763.91;4888052;29;45641;-72
2022/11/28 10:01:20;;;;;;;;;13.00;9.00;;;;;12.14;71.33;100741.53;5012128;28;46694;-76
2022/11/28 10:04:04;;;;;;;;;10.00;9.33;;;;;12.42;71.44;100763.59;5019437;28;45563;-73
2022/11/28 10:06:35;;;;;;;;;8.00;6.33;;;;;12.44;70.45;100770.47;5017130;28;45377;-73
2022/11/28 10:09:19;;;;;;;;;8.00;7.33;;;;;12.44;70.13;100765.13;5009781;28;45639;-73
2022/11/28 10:12:02;;;;;;;;;7.33;6.33;;;;;12.36;70.94;100740.22;5014857;28;46541;-75
2022/11/28 10:14:28;;;;;;;;;6.33;6.00;;;;;12.58;70.64;100754.84;5002939;28;45867;-73
2022/11/28 10:17:16;;;;;;;;;10.33;9.33;;;;;12.61;70.19;100760.72;5018516;28;45554;-72
2022/11/28 10:19:48;;;;;;;;;12.67;8.67;;;;;12.52;70.15;100747.50;5019315;28;45604;-71
2022/11/28 10:22:26;;;;;;;;;9.00;7.33;;;;;12.61;70.08;100767.88;5020173;28;45292;-73
2022/11/28 10:24:56;;;;;;;;;6.33;6.00;;;;;12.40;69.78;100726.41;5018695;28;45611;-72
2022/11/28 10:27:31;;;;;;;;;4.67;4.67;;;;;12.68;69.37;100776.94;5001974;28;45516;-72
2022/11/28 10:30:09;;;;;;;;;7.00;7.00;;;;;12.27;69.59;100710.00;4999357;28;45584;-72
2022/11/28 10:32:44;;;;;;;;;10.00;7.00;;;;;12.56;69.07;100756.84;5008762;28;46708;-71
2022/11/28 10:35:32;;;;;;;;;6.33;4.33;;;;;12.69;69.49;100779.44;4998949;28;45323;-73
2022/11/28 10:37:58;;;;;;;;;11.00;7.00;;;;;12.72;69.14;100778.31;5000311;28;45311;-72
2022/11/28 10:40:32;;;;;;;;;8.00;6.67;;;;;12.51;69.46;100745.81;5016744;28;45402;-71
2022/11/28 10:43:05;;;;;;;;;4.33;4.00;;;;;12.76;68.32;100764.47;4997309;28;48007;-72
2022/11/28 10:45:48;;;;;;;;;16.00;11.33;;;;;12.77;68.54;100759.97;4998730;28;45194;-72
2022/11/28 10:48:37;;;;;;;;;8.67;7.33;;;;;12.70;68.23;100753.63;4999970;28;46786;-71
2022/11/28 10:51:37;;;;;;;;;3.33;3.33;;;;;12.67;68.25;100760.09;5003225;28;45382;-72
2022/11/28 10:54:02;;;;;;;;;6.00;5.00;;;;;12.65;68.88;100761.25;4997955;28;46537;-73
2022/11/28 10:56:35;;;;;;;;;7.00;7.00;;;;;12.59;68.36;100767.19;4997255;28;45517;-73
2022/11/28 10:59:20;;;;;;;;;5.00;3.67;;;;;12.56;68.31;100763.00;5016147;28;45412;-72
2022/11/28 11:01:47;;;;;;;;;7.00;5.00;;;;;11.48;68.80;100579.50;5001415;28;45344;-72
2022/11/28 11:04:18;;;;;;;;;4.00;4.00;;;;;12.54;68.47;100764.16;5017901;28;46909;-72
2022/11/28 11:06:58;;;;;;;;;6.33;4.00;;;;;12.53;68.68;100751.84;5018132;28;45457;-74
2022/11/28 11:09:23;;;;;;;;;6.33;5.00;;;;;12.62;68.32;100761.56;5013939;28;45550;-76
2022/11/28 11:11:57;;;;;;;;;5.33;5.33;;;;;12.25;68.56;100690.66;4998848;28;45227;-72
2022/11/28 11:14:32;;;;;;;;;5.33;5.33;;;;;12.70;68.40;100754.44;5002604;28;46549;-73
2022/11/28 11:16:58;;;;;;;;;6.00;5.33;;;;;12.24;68.74;100699.66;5017852;28;45306;-72
2022/11/28 11:19:31;;;;;;;;;5.00;5.00;;;;;12.75;68.82;100772.66;5000438;28;45440;-72
2022/11/28 11:22:35;;;;;;;;;6.00;4.00;;;;;12.74;68.78;100786.97;5017439;28;45514;-73
2022/11/28 11:25:28;;;;;;;;;9.67;5.00;;;;;12.56;68.09;100751.50;4937420;28;47326;-72
2022/11/28 11:27:56;;;;;;;;;6.67;5.67;;;;;12.39;68.45;100714.06;4994865;28;45369;-71
2022/11/28 11:30:37;;;;;;;;;6.00;5.00;;;;;12.87;68.35;100768.72;4998972;28;45294;-74
2022/11/28 11:33:05;;;;;;;;;4.33;4.00;;;;;12.11;67.85;100613.94;4999129;28;45587;-73